createdAt,value
2023-01-21T00:01:19.518Z,72.19
2023-01-21T00:03:46.968Z,72.69
2023-01-21T00:06:15.120Z,73.46
2023-01-21T00:08:42.875Z,74.28
2023-01-21T00:11:17.087Z,73.67
2023-01-21T00:13:44.938Z,73.35
2023-01-21T00:16:13.162Z,74.78
2023-01-21T00:18:41.329Z,75.45
2023-01-21T00:21:08.975Z,74.70
2023-01-21T00:23:36.869Z,74.44
2023-01-21T00:26:06.174Z,75.52
2023-01-21T00:28:35.596Z,76.35
2023-01-21T00:31:05.243Z,75.89
2023-01-21T00:33:32.717Z,74.61
2023-01-21T00:36:05.701Z,74.29
2023-01-21T00:38:33.714Z,74.38
2023-01-21T00:41:08.237Z,75.73
2023-01-21T00:43:35.902Z,75.81
2023-01-21T00:46:04.023Z,77.98
2023-01-21T00:48:32.253Z,78.02
2023-01-21T00:51:01.085Z,78.29
2023-01-21T00:53:29.206Z,79.21
2023-01-21T00:56:00.234Z,78.22
2023-01-21T00:58:28.183Z,79.04
2023-01-21T01:01:06.604Z,79.20
2023-01-21T01:03:34.264Z,79.60
2023-01-21T01:06:04.662Z,80.19
2023-01-21T01:08:32.910Z,80.70
2023-01-21T01:11:03.446Z,80.55
2023-01-21T01:13:31.655Z,81.81
2023-01-21T01:16:00.220Z,82.97
2023-01-21T01:18:28.441Z,82.79
2023-01-21T01:20:56.687Z,82.07
2023-01-21T01:23:24.461Z,83.09
2023-01-21T01:25:59.223Z,83.88
2023-01-21T01:28:26.493Z,84.60
2023-01-21T01:30:54.416Z,84.08
2023-01-21T01:33:22.226Z,84.64
2023-01-21T01:35:49.904Z,84.80
2023-01-21T01:38:17.691Z,85.30
2023-01-21T01:40:46.103Z,85.34
2023-01-21T01:43:22.542Z,85.81
2023-01-21T01:45:50.521Z,86.66
2023-01-21T01:48:27.368Z,86.24
2023-01-21T01:50:56.097Z,85.73
2023-01-21T01:53:30.399Z,84.86
2023-01-21T01:55:57.648Z,85.28
2023-01-21T01:58:24.822Z,86.20
2023-01-21T02:00:53.002Z,86.16
2023-01-21T02:03:38.264Z,86.71
2023-01-21T02:06:06.833Z,87.30
2023-01-21T02:08:34.525Z,87.71
2023-01-21T02:11:02.835Z,87.85
2023-01-21T02:13:31.304Z,87.74
2023-01-21T02:16:04.573Z,87.52
2023-01-21T02:18:38.979Z,88.11
2023-01-21T02:21:20.836Z,88.22
2023-01-21T02:24:17.393Z,89.15
2023-01-21T02:27:30.703Z,90.14
2023-01-21T02:30:22.463Z,90.21
2023-01-21T02:33:08.832Z,90.34
2023-01-21T02:35:53.889Z,90.72
2023-01-21T02:38:31.601Z,91.09
2023-01-21T02:41:01.447Z,91.31
2023-01-21T02:43:43.061Z,89.86
2023-01-21T02:46:13.084Z,90.03
2023-01-21T02:48:41.785Z,90.31
2023-01-21T02:51:08.893Z,90.59
2023-01-21T02:53:36.357Z,90.64
2023-01-21T02:56:09.277Z,90.77
2023-01-21T02:58:39.906Z,91.41
2023-01-21T03:01:27.828Z,92.04
2023-01-21T03:04:16.415Z,92.23
2023-01-21T03:07:00.468Z,92.85
2023-01-21T03:09:29.081Z,92.34
2023-01-21T03:11:56.102Z,92.97
2023-01-21T03:15:11.581Z,92.45
2023-01-21T03:18:09.470Z,91.91
2023-01-21T03:20:48.781Z,92.80
2023-01-21T03:23:18.573Z,93.62
2023-01-21T03:25:45.710Z,94.23
2023-01-21T03:28:14.593Z,94.84
2023-01-21T03:30:43.412Z,96.40
2023-01-21T03:33:10.701Z,97.44
2023-01-21T03:35:41.255Z,97.17
2023-01-21T03:38:17.940Z,97.83
2023-01-21T03:40:53.655Z,99.16
2023-01-21T03:43:21.117Z,99.53
2023-01-21T03:45:54.993Z,100.00
2023-01-21T03:48:43.653Z,100.00
2023-01-21T03:51:16.077Z,100.00
2023-01-21T03:53:43.207Z,100.00
2023-01-21T03:56:28.895Z,100.00
2023-01-21T03:58:56.543Z,100.00
2023-01-21T04:01:24.330Z,99.89
2023-01-21T04:03:52.164Z,99.65
2023-01-21T04:06:20.655Z,99.51
2023-01-21T04:08:48.848Z,98.86
2023-01-21T04:11:17.143Z,98.31
2023-01-21T04:13:47.153Z,97.88
2023-01-21T04:16:15.257Z,97.68
2023-01-21T04:18:43.541Z,97.36
2023-01-21T04:21:11.123Z,97.45
2023-01-21T04:23:39.250Z,96.96
2023-01-21T04:26:07.708Z,96.75
2023-01-21T04:28:35.860Z,96.66
2023-01-21T04:31:03.437Z,97.46
2023-01-21T04:33:31.482Z,97.34
2023-01-21T04:35:59.700Z,98.03
2023-01-21T04:38:28.197Z,97.53
2023-01-21T04:40:59.635Z,97.48
2023-01-21T04:43:27.656Z,97.67
2023-01-21T04:45:55.936Z,98.33
2023-01-21T04:48:23.919Z,98.33
2023-01-21T04:50:52.435Z,98.16
2023-01-21T04:53:20.440Z,97.54
2023-01-21T04:55:48.500Z,96.79
2023-01-21T04:58:16.734Z,96.91
2023-01-21T05:00:44.739Z,96.72
2023-01-21T05:03:12.651Z,96.19
2023-01-21T05:05:41.070Z,95.27
2023-01-21T05:08:10.171Z,96.24
2023-01-21T05:10:37.831Z,96.47
2023-01-21T05:13:05.792Z,96.57
2023-01-21T05:15:33.930Z,96.29
2023-01-21T05:18:01.678Z,96.32
2023-01-21T05:20:29.254Z,97.41
2023-01-21T05:22:58.111Z,96.69
2023-01-21T05:25:26.195Z,97.06
2023-01-21T05:27:54.287Z,95.27
2023-01-21T05:30:23.020Z,96.51
2023-01-21T05:32:52.239Z,97.63
2023-01-21T05:35:42.856Z,97.05
2023-01-21T05:38:10.829Z,97.22
2023-01-21T05:40:38.567Z,97.58
2023-01-21T05:43:06.233Z,97.88
2023-01-21T05:45:34.328Z,98.32
2023-01-21T05:48:02.178Z,98.67
2023-01-21T05:50:32.315Z,99.04
2023-01-21T05:52:59.868Z,99.07
2023-01-21T05:55:27.936Z,99.27
2023-01-21T05:57:56.190Z,99.20
2023-01-21T06:00:24.315Z,98.78
2023-01-21T06:02:52.339Z,97.86
2023-01-21T06:05:20.595Z,96.27
2023-01-21T06:07:48.753Z,96.57
2023-01-21T06:10:17.475Z,96.78
2023-01-21T06:12:45.728Z,96.88
2023-01-21T06:15:14.033Z,96.54
2023-01-21T06:17:49.316Z,96.03
2023-01-21T06:20:18.033Z,95.17
2023-01-21T06:22:45.958Z,95.41
2023-01-21T06:25:13.962Z,96.21
2023-01-21T06:27:42.171Z,95.52
2023-01-21T06:30:12.710Z,95.58
2023-01-21T06:32:40.558Z,95.17
2023-01-21T06:35:10.498Z,95.84
2023-01-21T06:37:39.877Z,96.84
2023-01-21T06:40:11.530Z,97.07
2023-01-21T06:42:39.553Z,97.86
2023-01-21T06:45:09.743Z,98.05
2023-01-21T06:47:39.986Z,97.91
2023-01-21T06:50:10.154Z,97.77
2023-01-21T06:52:42.835Z,98.50
2023-01-21T06:55:10.879Z,98.14
2023-01-21T06:57:38.479Z,97.41
2023-01-21T07:00:06.297Z,97.21
2023-01-21T07:02:34.578Z,97.64
2023-01-21T07:05:02.779Z,97.42
2023-01-21T07:07:30.857Z,97.41
2023-01-21T07:10:00.450Z,96.47
2023-01-21T07:12:28.062Z,95.64
2023-01-21T07:14:56.239Z,96.35
2023-01-21T07:17:23.763Z,97.29
2023-01-21T07:19:52.215Z,97.76
2023-01-21T07:22:19.677Z,97.56
2023-01-21T07:24:47.801Z,97.07
2023-01-21T07:27:16.258Z,96.96
2023-01-21T07:29:43.850Z,96.94
2023-01-21T07:32:12.151Z,96.25
2023-01-21T07:34:40.328Z,96.21
2023-01-21T07:37:08.561Z,95.88
2023-01-21T07:39:36.594Z,95.02
2023-01-21T07:42:04.877Z,95.10
2023-01-21T07:44:34.160Z,95.72
2023-01-21T07:47:05.489Z,95.73
2023-01-21T07:49:33.069Z,95.33
2023-01-21T07:52:00.617Z,96.37
2023-01-21T07:54:29.133Z,96.32
2023-01-21T07:56:57.157Z,97.03
2023-01-21T07:59:25.268Z,96.63
2023-01-21T08:01:53.043Z,95.86
2023-01-21T08:04:22.096Z,94.95
2023-01-21T08:06:51.117Z,94.87
2023-01-21T08:09:19.063Z,94.90
2023-01-21T08:11:47.302Z,95.28
2023-01-21T08:14:15.497Z,93.69
2023-01-21T08:16:43.053Z,92.33
2023-01-21T08:19:13.053Z,92.15
2023-01-21T08:21:41.950Z,92.14
2023-01-21T08:24:10.690Z,92.51
2023-01-21T08:26:38.793Z,91.84
2023-01-21T08:29:06.388Z,91.16
2023-01-21T08:31:35.195Z,91.80
2023-01-21T08:34:03.462Z,92.36
2023-01-21T08:36:31.357Z,92.54
2023-01-21T08:38:59.353Z,92.53
2023-01-21T08:41:26.906Z,92.81
2023-01-21T08:43:54.911Z,91.90
2023-01-21T08:46:22.859Z,90.43
2023-01-21T08:48:51.186Z,89.34
2023-01-21T08:51:19.138Z,90.33
2023-01-21T08:53:48.868Z,90.47
2023-01-21T08:56:17.126Z,90.26
2023-01-21T08:58:44.896Z,90.09
2023-01-21T09:01:14.112Z,87.12
2023-01-21T09:03:41.933Z,84.43
2023-01-21T09:06:11.300Z,85.56
2023-01-21T09:08:39.396Z,86.55
2023-01-21T09:11:09.333Z,87.28
2023-01-21T09:13:38.802Z,88.25
2023-01-21T09:16:36.431Z,88.46
2023-01-21T09:19:04.113Z,87.97
2023-01-21T09:21:31.879Z,86.93
2023-01-21T09:24:00.228Z,86.97
2023-01-21T09:26:28.333Z,86.55
2023-01-21T09:28:57.204Z,85.61
2023-01-21T09:31:29.280Z,83.45
2023-01-21T09:34:20.201Z,82.61
2023-01-21T09:36:48.309Z,82.63
2023-01-21T09:39:16.450Z,79.11
2023-01-21T09:41:49.945Z,70.61
2023-01-21T09:44:26.321Z,68.06
2023-01-21T09:47:17.064Z,66.21
2023-01-21T09:50:06.128Z,72.63
2023-01-21T09:52:46.410Z,75.49
2023-01-21T09:55:18.601Z,72.26
2023-01-21T09:58:07.519Z,70.47
2023-01-21T10:00:36.397Z,66.52
2023-01-21T10:03:09.047Z,67.83
2023-01-21T10:06:00.467Z,67.16
2023-01-21T10:08:48.540Z,62.78
2023-01-21T10:11:26.417Z,58.17
2023-01-21T10:14:14.785Z,56.76
2023-01-21T10:16:44.788Z,56.01
2023-01-21T10:19:19.876Z,50.69
2023-01-21T10:21:50.960Z,51.44
2023-01-21T10:24:24.447Z,49.40
2023-01-21T10:26:53.317Z,49.06
2023-01-21T10:29:23.317Z,50.32
2023-01-21T10:32:02.986Z,51.72
2023-01-21T10:34:34.571Z,52.80
2023-01-21T10:37:32.787Z,51.18
2023-01-21T10:40:05.309Z,48.37
2023-01-21T10:42:57.132Z,50.48
2023-01-21T10:45:38.769Z,53.76
2023-01-21T10:48:32.994Z,47.49
2023-01-21T10:51:29.797Z,46.96
2023-01-21T10:54:03.431Z,45.47
2023-01-21T10:56:57.958Z,47.45
2023-01-21T10:59:28.279Z,47.79
2023-01-21T11:02:18.336Z,48.32
2023-01-21T11:04:51.674Z,49.41
2023-01-21T11:07:20.102Z,48.96
2023-01-21T11:09:48.053Z,50.33
2023-01-21T11:12:19.924Z,53.03
2023-01-21T11:15:15.123Z,54.69
2023-01-21T11:17:42.737Z,51.97
2023-01-21T11:20:22.022Z,52.42
2023-01-21T11:22:49.464Z,52.82
2023-01-21T11:25:27.191Z,49.46
2023-01-21T11:27:55.158Z,45.10
2023-01-21T11:30:49.697Z,40.96
2023-01-21T11:33:23.938Z,39.50
2023-01-21T11:35:52.353Z,39.96
2023-01-21T11:38:34.646Z,40.62
2023-01-21T11:41:21.212Z,37.48
2023-01-21T11:43:51.063Z,38.39
2023-01-21T11:46:42.704Z,40.38
2023-01-21T11:49:09.625Z,40.88
2023-01-21T11:51:38.848Z,40.61
2023-01-21T11:54:20.647Z,42.87
2023-01-21T11:57:00.634Z,42.10
2023-01-21T11:59:36.599Z,41.02
2023-01-21T12:02:27.771Z,42.00
2023-01-21T12:04:58.313Z,43.83
2023-01-21T12:07:29.844Z,42.19
2023-01-21T12:10:08.413Z,39.13
2023-01-21T12:12:35.343Z,39.43
2023-01-21T12:15:11.556Z,42.04
2023-01-21T12:18:26.589Z,42.18
2023-01-21T12:21:14.717Z,41.84
2023-01-21T12:23:41.742Z,41.55
2023-01-21T12:26:31.037Z,43.18
2023-01-21T12:29:21.738Z,41.48
2023-01-21T12:31:57.411Z,41.83
2023-01-21T12:34:24.498Z,41.13
2023-01-21T12:37:16.888Z,40.71
2023-01-21T12:39:44.504Z,42.15
2023-01-21T12:42:17.274Z,44.11
2023-01-21T12:45:14.497Z,46.74
2023-01-21T12:48:04.498Z,49.40
2023-01-21T12:50:31.294Z,51.13
2023-01-21T12:53:10.163Z,53.29
2023-01-21T12:56:01.895Z,54.62
2023-01-21T12:58:33.401Z,56.68
2023-01-21T13:01:07.311Z,56.15
2023-01-21T13:03:53.535Z,54.33
2023-01-21T13:06:47.228Z,52.23
2023-01-21T13:09:22.671Z,52.68
2023-01-21T13:11:55.208Z,52.47
2023-01-21T13:15:11.892Z,51.55
2023-01-21T13:17:39.788Z,50.59
2023-01-21T13:20:20.898Z,48.13
2023-01-21T13:23:03.263Z,49.92
2023-01-21T13:25:48.668Z,48.26
2023-01-21T13:28:22.381Z,46.13
2023-01-21T13:31:34.688Z,45.95
2023-01-21T13:34:26.446Z,46.62
2023-01-21T13:37:10.849Z,46.72
2023-01-21T13:39:52.722Z,47.58
2023-01-21T13:42:37.635Z,47.41
2023-01-21T13:45:29.853Z,48.22
2023-01-21T13:48:23.140Z,50.15
2023-01-21T13:50:59.164Z,48.46
2023-01-21T13:53:42.231Z,50.89
2023-01-21T13:56:17.882Z,52.05
2023-01-21T13:59:08.499Z,52.79
2023-01-21T14:01:45.744Z,52.23
2023-01-21T14:04:44.439Z,53.60
2023-01-21T14:07:16.758Z,52.22
2023-01-21T14:10:04.620Z,52.85
2023-01-21T14:12:50.220Z,53.66
2023-01-21T14:15:30.223Z,53.91
2023-01-21T14:18:32.692Z,54.74
2023-01-21T14:21:11.946Z,55.38
2023-01-21T14:23:47.339Z,56.14
2023-01-21T14:26:20.033Z,56.01
2023-01-21T14:29:12.673Z,56.25
2023-01-21T14:31:44.949Z,58.18
2023-01-21T14:34:40.182Z,59.15
2023-01-21T14:37:11.248Z,58.66
2023-01-21T14:40:12.128Z,59.29
2023-01-21T14:42:50.224Z,60.63
2023-01-21T14:45:20.407Z,61.31
2023-01-21T14:47:49.020Z,62.11
2023-01-21T14:50:51.868Z,61.84
2023-01-21T14:53:49.262Z,61.90
2023-01-21T14:56:24.096Z,62.43
2023-01-21T14:59:08.258Z,62.65
2023-01-21T15:01:39.824Z,64.00
2023-01-21T15:04:20.937Z,63.64
2023-01-21T15:06:48.737Z,63.31
2023-01-21T15:09:25.625Z,63.76
2023-01-21T15:11:56.539Z,62.92
2023-01-21T15:14:25.794Z,61.14
2023-01-21T15:16:53.914Z,61.21
2023-01-21T15:19:26.527Z,59.61
2023-01-21T15:21:59.910Z,58.53
2023-01-21T15:24:30.082Z,58.00
2023-01-21T15:27:17.006Z,57.84
2023-01-21T15:29:59.033Z,58.10
2023-01-21T15:32:41.618Z,58.62
2023-01-21T15:35:31.108Z,59.69
2023-01-21T15:38:40.510Z,61.40
2023-01-21T15:41:13.071Z,62.05
2023-01-21T15:43:55.202Z,63.08
2023-01-21T15:46:43.703Z,63.77
2023-01-21T15:49:28.882Z,64.49
2023-01-21T15:51:56.006Z,65.02
2023-01-21T15:54:38.175Z,65.23
2023-01-21T15:57:33.110Z,66.11
2023-01-21T16:00:23.986Z,67.09
2023-01-21T16:03:12.589Z,68.57
2023-01-21T16:06:02.761Z,69.65
2023-01-21T16:08:35.355Z,70.04
2023-01-21T16:11:08.075Z,70.63
2023-01-21T16:13:47.178Z,71.36
2023-01-21T16:16:43.897Z,71.30
2023-01-21T16:19:12.809Z,71.84
2023-01-21T16:21:41.400Z,71.85
2023-01-21T16:24:14.564Z,72.02
2023-01-21T16:26:42.845Z,72.46
2023-01-21T16:29:13.218Z,72.38
2023-01-21T16:31:59.696Z,73.25
2023-01-21T16:34:42.528Z,74.37
2023-01-21T16:37:15.249Z,74.72
2023-01-21T16:39:42.222Z,75.01
2023-01-21T16:42:20.984Z,75.77
2023-01-21T16:44:48.451Z,77.45
2023-01-21T16:47:44.105Z,76.77
2023-01-21T16:50:22.184Z,76.53
2023-01-21T16:52:49.774Z,75.85
2023-01-21T16:55:22.734Z,76.18
2023-01-21T16:57:50.663Z,77.96
2023-01-21T17:00:31.722Z,78.91
2023-01-21T17:03:23.172Z,78.91
2023-01-21T17:05:50.979Z,79.83
2023-01-21T17:08:19.434Z,80.91
2023-01-21T17:11:00.806Z,81.18
2023-01-21T17:13:28.871Z,81.05
2023-01-21T17:16:00.213Z,80.80
2023-01-21T17:18:34.887Z,81.00
2023-01-21T17:21:04.929Z,81.71
2023-01-21T17:23:34.542Z,81.61
2023-01-21T17:26:24.365Z,80.83
2023-01-21T17:28:58.528Z,81.24
2023-01-21T17:31:42.690Z,80.98
2023-01-21T17:34:16.637Z,80.45
2023-01-21T17:36:45.793Z,80.24
2023-01-21T17:39:14.144Z,80.82
2023-01-21T17:41:46.392Z,81.68
2023-01-21T17:44:21.715Z,82.72
2023-01-21T17:46:50.007Z,82.98
2023-01-21T17:49:24.928Z,82.77
2023-01-21T17:51:54.450Z,81.68
2023-01-21T17:54:41.884Z,80.81
2023-01-21T17:57:48.789Z,79.51
2023-01-21T18:00:29.254Z,80.19
2023-01-21T18:02:57.775Z,81.64
2023-01-21T18:05:25.393Z,81.44
2023-01-21T18:07:53.841Z,81.94
2023-01-21T18:10:23.623Z,84.31
2023-01-21T18:12:50.788Z,85.67
2023-01-21T18:15:20.569Z,87.20
2023-01-21T18:17:53.728Z,86.57
2023-01-21T18:20:22.656Z,87.75
2023-01-21T18:22:51.254Z,89.06
2023-01-21T18:25:19.287Z,89.07
2023-01-21T18:27:47.622Z,88.96
2023-01-21T18:30:53.103Z,88.63
2023-01-21T18:33:20.782Z,88.69
2023-01-21T18:35:48.646Z,88.84
2023-01-21T18:38:27.608Z,88.31
2023-01-21T18:40:55.730Z,87.58
2023-01-21T18:43:25.540Z,87.15
2023-01-21T18:45:54.615Z,87.95
2023-01-21T18:48:23.888Z,88.12
2023-01-21T18:50:51.910Z,88.44
2023-01-21T18:53:19.410Z,88.71
2023-01-21T18:55:49.055Z,88.51
2023-01-21T18:58:16.550Z,89.27
2023-01-21T19:00:44.604Z,89.62
2023-01-21T19:03:15.886Z,90.32
2023-01-21T19:05:43.733Z,89.49
2023-01-21T19:08:16.866Z,89.04
2023-01-21T19:10:50.154Z,90.96
2023-01-21T19:13:18.035Z,92.02
2023-01-21T19:15:46.618Z,93.41
2023-01-21T19:18:14.579Z,93.48
2023-01-21T19:20:44.450Z,92.83
2023-01-21T19:23:41.180Z,92.38
2023-01-21T19:26:08.642Z,91.24
2023-01-21T19:28:36.360Z,91.18
2023-01-21T19:31:04.570Z,91.19
2023-01-21T19:33:32.283Z,90.32
2023-01-21T19:36:11.505Z,89.28
2023-01-21T19:38:39.445Z,89.90
2023-01-21T19:41:07.750Z,90.38
2023-01-21T19:43:35.633Z,90.82
2023-01-21T19:46:03.853Z,90.65
2023-01-21T19:48:31.463Z,90.55
2023-01-21T19:50:59.363Z,90.02
2023-01-21T19:53:27.557Z,88.67
2023-01-21T19:55:54.784Z,88.13
2023-01-21T19:58:24.012Z,87.75
2023-01-21T20:00:52.782Z,87.94
2023-01-21T20:03:22.437Z,88.50
2023-01-21T20:05:52.125Z,88.03
2023-01-21T20:08:21.804Z,89.34
2023-01-21T20:10:48.971Z,91.00
2023-01-21T20:13:17.958Z,90.29
2023-01-21T20:15:46.327Z,91.07
2023-01-21T20:18:25.115Z,92.33
2023-01-21T20:20:52.718Z,92.25
2023-01-21T20:23:20.710Z,93.18
2023-01-21T20:25:51.118Z,93.09
2023-01-21T20:28:22.506Z,93.71
2023-01-21T20:30:51.057Z,93.99
2023-01-21T20:33:20.135Z,93.75
2023-01-21T20:35:47.831Z,95.02
2023-01-21T20:38:15.224Z,94.51
2023-01-21T20:40:43.450Z,94.74
2023-01-21T20:43:11.431Z,95.13
2023-01-21T20:45:42.090Z,94.61
2023-01-21T20:48:14.663Z,94.98
2023-01-21T20:50:42.743Z,95.76
2023-01-21T20:53:12.228Z,96.03
2023-01-21T20:55:39.995Z,95.77
2023-01-21T20:58:07.926Z,96.42
2023-01-21T21:00:36.216Z,96.34
2023-01-21T21:03:04.634Z,95.43
2023-01-21T21:05:32.640Z,95.32
2023-01-21T21:08:00.584Z,94.97
2023-01-21T21:10:39.068Z,94.34
2023-01-21T21:13:06.865Z,94.90
2023-01-21T21:15:34.648Z,94.18
2023-01-21T21:18:03.237Z,93.01
2023-01-21T21:20:35.322Z,93.92
2023-01-21T21:23:03.434Z,93.73
2023-01-21T21:25:38.727Z,93.25
2023-01-21T21:28:06.086Z,93.05
2023-01-21T21:30:33.753Z,92.86
2023-01-21T21:33:01.401Z,92.57
2023-01-21T21:35:36.503Z,91.57
2023-01-21T21:38:26.112Z,91.65
2023-01-21T21:40:53.844Z,91.52
2023-01-21T21:43:35.715Z,92.80
2023-01-21T21:46:28.703Z,91.88
2023-01-21T21:49:02.071Z,91.51
2023-01-21T21:51:31.734Z,91.15
2023-01-21T21:53:59.737Z,89.90
2023-01-21T21:56:27.875Z,90.04
2023-01-21T21:58:55.748Z,89.84
2023-01-21T22:01:29.521Z,89.59
2023-01-21T22:04:01.033Z,88.64
2023-01-21T22:06:34.485Z,89.23
2023-01-21T22:09:02.553Z,90.06
2023-01-21T22:11:33.661Z,90.83
2023-01-21T22:14:04.119Z,90.91
2023-01-21T22:16:32.571Z,90.73
2023-01-21T22:19:00.364Z,89.85
2023-01-21T22:21:34.488Z,88.67
2023-01-21T22:24:02.467Z,87.88
2023-01-21T22:26:29.984Z,87.57
2023-01-21T22:28:58.665Z,87.02
2023-01-21T22:31:28.274Z,86.14
2023-01-21T22:33:57.319Z,86.02
2023-01-21T22:36:26.175Z,87.41
2023-01-21T22:38:54.140Z,87.85
2023-01-21T22:41:23.334Z,87.28
2023-01-21T22:43:51.173Z,86.41
2023-01-21T22:46:21.287Z,86.15
2023-01-21T22:48:48.671Z,85.42
2023-01-21T22:51:16.835Z,85.33
2023-01-21T22:53:45.273Z,84.70
2023-01-21T22:56:50.852Z,85.40
2023-01-21T22:59:19.210Z,84.73
2023-01-21T23:01:48.742Z,84.48
2023-01-21T23:04:17.720Z,83.03
2023-01-21T23:06:45.803Z,82.17
2023-01-21T23:09:16.553Z,82.07
2023-01-21T23:11:45.099Z,81.63
2023-01-21T23:14:13.108Z,81.97
2023-01-21T23:16:40.890Z,82.51
2023-01-21T23:19:09.027Z,82.97
2023-01-21T23:21:38.513Z,82.59
2023-01-21T23:24:08.067Z,82.21
2023-01-21T23:26:38.599Z,81.68
2023-01-21T23:29:06.312Z,81.22
2023-01-21T23:31:34.400Z,80.32
2023-01-21T23:34:03.304Z,80.75
2023-01-21T23:36:30.991Z,81.58
2023-01-21T23:38:59.087Z,83.68
2023-01-21T23:41:26.936Z,84.48
2023-01-21T23:43:55.136Z,83.14
2023-01-21T23:46:22.898Z,84.57
2023-01-21T23:48:50.550Z,85.32
2023-01-21T23:51:18.847Z,85.83
2023-01-21T23:53:49.977Z,85.76
2023-01-21T23:56:20.295Z,83.82
2023-01-21T23:58:48.050Z,81.94
